createdAt,value
2019-02-06T00:01:27.180Z,1.60
2019-02-06T00:03:32.156Z,1.60
2019-02-06T00:05:36.916Z,1.70
2019-02-06T00:07:41.771Z,1.70
2019-02-06T00:09:46.915Z,1.70
2019-02-06T00:11:51.639Z,1.70
2019-02-06T00:13:56.422Z,1.70
2019-02-06T00:16:01.410Z,1.70
2019-02-06T00:18:06.522Z,1.70
2019-02-06T00:20:11.390Z,1.70
2019-02-06T00:22:16.162Z,1.70
2019-02-06T00:24:21.076Z,1.70
2019-02-06T00:26:26.693Z,1.70
2019-02-06T00:28:31.444Z,1.70
2019-02-06T00:30:36.689Z,1.80
2019-02-06T00:32:45.081Z,1.80
2019-02-06T00:34:49.815Z,1.80
2019-02-06T00:36:54.630Z,1.70
2019-02-06T00:38:59.388Z,1.80
2019-02-06T00:41:04.682Z,1.70
2019-02-06T00:43:09.509Z,1.70
2019-02-06T00:45:14.710Z,1.70
2019-02-06T00:47:19.687Z,1.70
2019-02-06T00:49:24.876Z,1.70
2019-02-06T00:51:29.798Z,1.70
2019-02-06T00:53:34.917Z,1.70
2019-02-06T00:55:40.113Z,1.80
2019-02-06T00:57:44.853Z,1.80
2019-02-06T00:59:49.631Z,1.70
2019-02-06T01:01:54.378Z,1.70
2019-02-06T01:03:59.142Z,1.80
2019-02-06T01:06:04.412Z,1.80
2019-02-06T01:08:09.616Z,1.80
2019-02-06T01:10:14.982Z,1.80
2019-02-06T01:12:19.759Z,1.80
2019-02-06T01:14:24.946Z,1.80
2019-02-06T01:16:30.039Z,1.80
2019-02-06T01:18:34.789Z,1.80
2019-02-06T01:20:40.017Z,1.80
2019-02-06T01:22:44.863Z,1.80
2019-02-06T01:24:49.639Z,1.70
2019-02-06T01:26:54.356Z,1.70
2019-02-06T01:28:59.472Z,1.70
2019-02-06T01:31:07.838Z,1.70
2019-02-06T01:33:12.606Z,1.70
2019-02-06T01:35:17.393Z,1.70
2019-02-06T01:37:22.137Z,1.70
2019-02-06T01:39:27.513Z,1.70
2019-02-06T01:41:32.460Z,1.70
2019-02-06T01:43:37.259Z,1.70
2019-02-06T01:45:42.176Z,1.70
2019-02-06T01:47:46.991Z,1.70
2019-02-06T01:49:52.062Z,1.60
2019-02-06T01:51:56.925Z,1.60
2019-02-06T01:54:01.669Z,1.60
2019-02-06T01:56:06.751Z,1.60
2019-02-06T01:58:11.498Z,1.60
2019-02-06T02:00:21.044Z,1.60
2019-02-06T02:02:25.924Z,1.50
2019-02-06T02:04:31.032Z,1.60
2019-02-06T02:06:35.783Z,1.50
2019-02-06T02:08:46.166Z,1.50
2019-02-06T02:10:51.019Z,1.40
2019-02-06T02:12:56.168Z,1.50
2019-02-06T02:15:00.943Z,1.50
2019-02-06T02:17:05.864Z,1.50
2019-02-06T02:19:11.213Z,1.50
2019-02-06T02:21:16.130Z,1.40
2019-02-06T02:23:21.156Z,1.40
2019-02-06T02:25:26.052Z,1.40
2019-02-06T02:27:30.836Z,1.40
2019-02-06T02:29:36.058Z,1.40
2019-02-06T02:31:40.861Z,1.40
2019-02-06T02:33:45.821Z,1.40
2019-02-06T02:35:51.000Z,1.40
2019-02-06T02:37:56.302Z,1.40
2019-02-06T02:40:01.119Z,1.40
2019-02-06T02:42:06.200Z,1.40
2019-02-06T02:44:11.026Z,1.40
2019-02-06T02:46:16.119Z,1.40
2019-02-06T02:48:20.931Z,1.40
2019-02-06T02:50:26.136Z,1.40
2019-02-06T02:52:31.114Z,1.40
2019-02-06T02:54:36.024Z,1.40
2019-02-06T02:56:40.907Z,1.40
2019-02-06T02:58:45.744Z,1.40
2019-02-06T03:01:15.640Z,1.30
2019-02-06T03:03:39.283Z,1.30
2019-02-06T03:05:44.391Z,1.30
2019-02-06T03:07:49.207Z,1.30
2019-02-06T03:09:53.996Z,1.30
2019-02-06T03:11:58.862Z,1.30
2019-02-06T03:14:03.692Z,1.30
2019-02-06T03:16:09.054Z,1.30
2019-02-06T03:18:13.961Z,1.30
2019-02-06T03:20:18.880Z,1.30
2019-02-06T03:22:23.702Z,1.30
2019-02-06T03:24:28.537Z,1.20
2019-02-06T03:26:33.494Z,1.20
2019-02-06T03:28:38.286Z,1.20
2019-02-06T03:30:43.091Z,1.20
2019-02-06T03:32:47.994Z,1.20
2019-02-06T03:34:52.810Z,1.30
2019-02-06T03:36:57.815Z,1.20
2019-02-06T03:39:04.605Z,1.20
2019-02-06T03:41:09.748Z,1.20
2019-02-06T03:43:14.653Z,1.20
2019-02-06T03:45:19.434Z,1.20
2019-02-06T03:47:24.223Z,1.20
2019-02-06T03:49:29.288Z,1.20
2019-02-06T03:51:34.306Z,1.20
2019-02-06T03:53:39.130Z,1.20
2019-02-06T03:55:44.122Z,1.20
2019-02-06T03:57:48.898Z,1.20
2019-02-06T03:59:54.007Z,1.20
2019-02-06T04:01:58.904Z,1.20
2019-02-06T04:04:03.689Z,1.20
2019-02-06T04:06:08.414Z,1.20
2019-02-06T04:08:13.346Z,1.20
2019-02-06T04:10:18.584Z,1.20
2019-02-06T04:12:23.630Z,1.20
2019-02-06T04:14:28.737Z,1.20
2019-02-06T04:16:33.461Z,1.20
2019-02-06T04:18:38.377Z,1.30
2019-02-06T04:20:43.636Z,1.20
2019-02-06T04:22:48.382Z,1.20
2019-02-06T04:24:53.197Z,1.20
2019-02-06T04:26:57.918Z,1.20
2019-02-06T04:29:02.774Z,1.20
2019-02-06T04:31:07.712Z,1.20
2019-02-06T04:33:13.757Z,1.20
2019-02-06T04:35:18.727Z,1.20
2019-02-06T04:37:23.804Z,1.20
2019-02-06T04:39:28.561Z,1.20
2019-02-06T04:41:33.462Z,1.20
2019-02-06T04:43:38.337Z,1.20
2019-02-06T04:45:43.079Z,1.20
2019-02-06T04:47:48.187Z,1.20
2019-02-06T04:49:52.933Z,1.20
2019-02-06T04:51:58.278Z,1.20
2019-02-06T04:54:03.092Z,1.20
2019-02-06T04:56:08.098Z,1.20
2019-02-06T04:58:13.187Z,1.20
2019-02-06T05:00:25.126Z,1.20
2019-02-06T05:02:29.865Z,1.20
2019-02-06T05:04:35.947Z,1.20
2019-02-06T05:06:40.773Z,1.20
2019-02-06T05:08:45.624Z,1.20
2019-02-06T05:10:50.445Z,1.20
2019-02-06T05:12:55.203Z,1.20
2019-02-06T05:14:59.948Z,1.20
2019-02-06T05:17:04.656Z,1.20
2019-02-06T05:19:09.843Z,1.10
2019-02-06T05:21:16.063Z,1.10
2019-02-06T05:23:21.302Z,1.10
2019-02-06T05:25:26.207Z,1.10
2019-02-06T05:27:31.032Z,1.10
2019-02-06T05:29:36.230Z,1.10
2019-02-06T05:31:41.090Z,1.10
2019-02-06T05:33:45.919Z,1.10
2019-02-06T05:35:50.769Z,1.10
2019-02-06T05:37:55.493Z,1.10
2019-02-06T05:40:00.530Z,1.10
2019-02-06T05:42:05.632Z,1.10
2019-02-06T05:44:10.571Z,1.10
2019-02-06T05:46:15.727Z,1.10
2019-02-06T05:48:20.466Z,1.20
2019-02-06T05:50:25.558Z,1.10
2019-02-06T05:52:30.902Z,1.10
2019-02-06T05:54:37.175Z,1.20
2019-02-06T05:56:42.059Z,1.20
2019-02-06T05:58:46.870Z,1.20
2019-02-06T06:00:52.085Z,1.20
2019-02-06T06:02:56.999Z,1.20
2019-02-06T06:05:01.882Z,1.20
2019-02-06T06:07:07.177Z,1.20
2019-02-06T06:09:12.113Z,1.30
2019-02-06T06:11:16.933Z,1.30
2019-02-06T06:13:22.791Z,1.30
2019-02-06T06:15:27.538Z,1.30
2019-02-06T06:17:32.296Z,1.30
2019-02-06T06:19:37.085Z,1.30
2019-02-06T06:21:41.822Z,1.30
2019-02-06T06:23:46.610Z,1.30
2019-02-06T06:25:51.596Z,1.30
2019-02-06T06:27:56.853Z,1.30
2019-02-06T06:30:01.750Z,1.30
2019-02-06T06:32:06.614Z,1.30
2019-02-06T06:34:11.414Z,1.30
2019-02-06T06:36:16.541Z,1.30
2019-02-06T06:38:21.376Z,1.00
2019-02-06T06:40:26.122Z,1.30
2019-02-06T06:42:30.952Z,1.30
2019-02-06T06:44:36.159Z,1.30
2019-02-06T06:46:41.122Z,1.30
2019-02-06T06:48:46.104Z,1.30
2019-02-06T06:50:50.960Z,1.30
2019-02-06T06:52:55.823Z,1.40
2019-02-06T06:55:01.088Z,1.30
2019-02-06T06:57:06.580Z,1.30
2019-02-06T06:59:11.426Z,1.30
2019-02-06T07:01:16.156Z,1.30
2019-02-06T07:03:21.019Z,1.30
2019-02-06T07:05:26.249Z,1.30
2019-02-06T07:07:31.018Z,1.30
2019-02-06T07:09:35.815Z,1.30
2019-02-06T07:11:40.546Z,1.30
2019-02-06T07:13:45.362Z,1.30
2019-02-06T07:15:50.474Z,1.30
2019-02-06T07:17:55.252Z,1.30
2019-02-06T07:20:00.317Z,1.30
2019-02-06T07:22:05.119Z,1.40
2019-02-06T07:24:09.991Z,1.30
2019-02-06T07:26:14.875Z,1.40
2019-02-06T07:28:19.952Z,1.40
2019-02-06T07:30:27.151Z,1.40
2019-02-06T07:32:32.992Z,1.40
2019-02-06T07:34:37.897Z,1.40
2019-02-06T07:36:42.798Z,1.40
2019-02-06T07:38:47.938Z,1.40
2019-02-06T07:40:52.762Z,1.50
2019-02-06T07:42:57.698Z,1.50
2019-02-06T07:45:02.531Z,1.50
2019-02-06T07:47:07.511Z,1.50
2019-02-06T07:49:12.273Z,1.60
2019-02-06T07:51:17.087Z,1.60
2019-02-06T07:53:21.869Z,1.60
2019-02-06T07:55:26.919Z,1.60
2019-02-06T07:57:32.158Z,1.60
2019-02-06T07:59:37.016Z,1.70
2019-02-06T08:01:42.371Z,1.70
2019-02-06T08:03:47.159Z,1.70
2019-02-06T08:05:51.958Z,1.70
2019-02-06T08:07:56.985Z,1.70
2019-02-06T08:10:01.763Z,1.80
2019-02-06T08:12:07.011Z,1.80
2019-02-06T08:14:12.140Z,1.80
2019-02-06T08:16:17.004Z,1.80
2019-02-06T08:18:21.779Z,1.90
2019-02-06T08:20:27.126Z,1.90
2019-02-06T08:22:32.164Z,1.90
2019-02-06T08:24:37.358Z,1.90
2019-02-06T08:26:42.337Z,1.90
2019-02-06T08:28:47.249Z,1.90
2019-02-06T08:30:52.240Z,2.00
2019-02-06T08:32:57.309Z,2.00
2019-02-06T08:35:02.197Z,2.10
2019-02-06T08:37:07.030Z,2.10
2019-02-06T08:39:12.007Z,2.10
2019-02-06T08:41:16.768Z,2.10
2019-02-06T08:43:21.585Z,2.20
2019-02-06T08:45:26.833Z,2.20
2019-02-06T08:47:38.070Z,2.20
2019-02-06T08:49:43.092Z,2.30
2019-02-06T08:51:49.145Z,2.30
2019-02-06T08:53:54.018Z,2.30
2019-02-06T08:55:59.625Z,2.30
2019-02-06T08:58:04.995Z,2.40
2019-02-06T09:00:13.895Z,2.50
2019-02-06T09:02:18.701Z,2.60
2019-02-06T09:04:24.036Z,2.70
2019-02-06T09:06:28.934Z,2.80
2019-02-06T09:08:34.295Z,2.90
2019-02-06T09:10:40.299Z,3.10
2019-02-06T09:12:45.427Z,3.10
2019-02-06T09:14:50.347Z,3.20
2019-02-06T09:16:55.993Z,3.30
2019-02-06T09:19:01.670Z,3.40
2019-02-06T09:21:07.418Z,3.50
2019-02-06T09:23:12.213Z,3.50
2019-02-06T09:25:18.785Z,3.50
2019-02-06T09:27:31.770Z,3.60
2019-02-06T09:29:36.968Z,3.60
2019-02-06T09:31:42.537Z,3.70
2019-02-06T09:33:47.943Z,3.70
2019-02-06T09:35:52.976Z,3.60
2019-02-06T09:37:59.149Z,3.70
2019-02-06T09:40:03.992Z,3.70
2019-02-06T09:42:09.285Z,3.70
2019-02-06T09:44:14.429Z,3.80
2019-02-06T09:46:19.306Z,3.80
2019-02-06T09:48:24.883Z,3.90
2019-02-06T09:51:27.315Z,3.90
2019-02-06T09:53:40.364Z,3.90
2019-02-06T09:56:53.400Z,4.00
2019-02-06T09:59:48.872Z,4.10
2019-02-06T10:02:45.644Z,4.20
2019-02-06T10:16:35.090Z,4.60
2019-02-06T10:18:41.671Z,4.70
2019-02-06T10:20:58.911Z,4.70
2019-02-06T10:23:16.186Z,4.90
2019-02-06T10:25:43.976Z,4.90
2019-02-06T10:28:15.687Z,5.00
2019-02-06T10:30:35.773Z,5.10
2019-02-06T10:32:52.530Z,5.20
2019-02-06T10:35:02.522Z,5.40
2019-02-06T10:37:23.820Z,5.50
2019-02-06T10:39:39.486Z,5.60
2019-02-06T10:41:52.635Z,5.60
2019-02-06T10:44:05.934Z,5.70
2019-02-06T10:46:14.339Z,5.90
2019-02-06T10:48:26.939Z,6.20
2019-02-06T10:50:41.680Z,6.60
2019-02-06T10:52:51.846Z,7.10
2019-02-06T10:54:57.715Z,7.20
2019-02-06T10:57:04.487Z,7.20
2019-02-06T10:59:10.776Z,7.20
2019-02-06T11:01:17.080Z,7.20
2019-02-06T11:03:22.954Z,7.10
2019-02-06T11:05:28.660Z,7.10
2019-02-06T11:07:36.272Z,7.10
2019-02-06T11:09:45.887Z,7.40
2019-02-06T11:11:52.357Z,7.70
2019-02-06T11:13:58.970Z,8.10
2019-02-06T11:16:08.442Z,8.50
2019-02-06T11:18:16.246Z,8.80
2019-02-06T11:20:25.472Z,8.80
2019-02-06T11:22:33.182Z,8.70
2019-02-06T11:24:42.855Z,8.70
2019-02-06T11:26:49.010Z,8.50
2019-02-06T11:28:56.774Z,8.30
2019-02-06T11:31:06.314Z,8.30
2019-02-06T11:33:12.653Z,8.10
2019-02-06T11:35:20.877Z,8.00
2019-02-06T11:37:26.819Z,7.90
2019-02-06T11:39:34.349Z,7.90
2019-02-06T11:41:50.406Z,8.00
2019-02-06T11:43:58.342Z,8.20
2019-02-06T11:46:04.599Z,8.40
2019-02-06T11:48:10.158Z,8.50
2019-02-06T11:50:21.207Z,8.40
2019-02-06T11:52:27.498Z,8.50
2019-02-06T11:54:34.670Z,8.70
2019-02-06T11:57:00.414Z,8.90
2019-02-06T11:59:09.856Z,9.00
2019-02-06T12:01:28.936Z,9.00
2019-02-06T12:03:50.442Z,9.10
2019-02-06T12:06:10.122Z,9.10
2019-02-06T12:08:17.963Z,9.20
2019-02-06T12:10:28.086Z,9.10
2019-02-06T12:12:43.559Z,8.90
2019-02-06T12:14:50.383Z,8.90
2019-02-06T12:16:56.616Z,8.90
2019-02-06T12:19:12.409Z,8.90
2019-02-06T12:21:18.273Z,8.80
2019-02-06T12:23:31.798Z,8.90
2019-02-06T12:25:29.970Z,8.90
2019-02-06T12:27:34.810Z,8.90
2019-02-06T12:29:39.916Z,8.80
2019-02-06T12:31:45.156Z,8.80
2019-02-06T12:33:50.125Z,8.70
2019-02-06T12:35:54.892Z,8.60
2019-02-06T12:37:59.955Z,8.60
2019-02-06T12:40:05.423Z,8.60
2019-02-06T12:42:10.395Z,8.60
2019-02-06T12:44:15.203Z,8.50
2019-02-06T12:46:20.667Z,8.50
2019-02-06T12:48:26.001Z,8.60
2019-02-06T12:50:31.110Z,8.50
2019-02-06T12:52:35.886Z,8.50
2019-02-06T12:54:41.076Z,8.60
2019-02-06T12:56:46.410Z,8.50
2019-02-06T12:58:51.228Z,8.60
2019-02-06T13:00:56.008Z,8.60
2019-02-06T13:03:01.187Z,8.70
2019-02-06T13:05:06.690Z,8.80
2019-02-06T13:07:11.964Z,8.80
2019-02-06T13:09:17.180Z,8.70
2019-02-06T13:11:22.349Z,8.70
2019-02-06T13:13:28.365Z,8.80
2019-02-06T13:15:33.583Z,8.90
2019-02-06T13:17:38.533Z,8.90
2019-02-06T13:19:46.035Z,9.10
2019-02-06T13:21:50.825Z,9.10
2019-02-06T13:23:55.733Z,9.10
2019-02-06T13:26:00.468Z,9.00
2019-02-06T13:28:05.616Z,8.90
2019-02-06T13:30:17.136Z,8.80
2019-02-06T13:32:22.503Z,8.80
2019-02-06T13:34:27.282Z,8.80
2019-02-06T13:36:32.443Z,8.80
2019-02-06T13:38:37.150Z,8.80
2019-02-06T13:40:46.149Z,8.90
2019-02-06T13:42:51.045Z,8.80
2019-02-06T13:44:56.059Z,8.90
2019-02-06T13:47:01.107Z,8.90
2019-02-06T13:49:13.223Z,9.00
2019-02-06T13:51:21.632Z,9.00
2019-02-06T13:53:29.484Z,9.10
2019-02-06T13:55:34.672Z,9.20
2019-02-06T13:57:39.842Z,9.20
2019-02-06T13:59:44.577Z,9.30
2019-02-06T14:01:49.668Z,9.30
2019-02-06T14:03:54.704Z,9.30
2019-02-06T14:05:59.478Z,9.30
2019-02-06T14:08:18.086Z,9.40
2019-02-06T14:10:23.408Z,9.50
2019-02-06T14:12:28.214Z,9.50
2019-02-06T14:14:32.957Z,9.50
2019-02-06T14:16:40.219Z,9.50
2019-02-06T14:18:46.254Z,9.60
2019-02-06T14:20:53.510Z,9.60
2019-02-06T14:23:02.045Z,9.70
2019-02-06T14:25:38.414Z,9.80
2019-02-06T14:28:15.061Z,9.90
2019-02-06T14:30:32.669Z,9.80
2019-02-06T14:33:12.691Z,9.70
2019-02-06T14:35:54.451Z,9.60
2019-02-06T14:38:35.441Z,9.40
2019-02-06T14:41:08.246Z,9.30
2019-02-06T14:44:00.404Z,9.30
2019-02-06T14:46:56.649Z,9.30
2019-02-06T14:49:44.834Z,9.30
2019-02-06T14:52:33.463Z,9.30
2019-02-06T14:55:49.252Z,9.30
2019-02-06T14:58:32.893Z,9.30
2019-02-06T15:01:05.502Z,9.30
2019-02-06T15:03:35.281Z,9.20
2019-02-06T15:06:00.749Z,9.20
2019-02-06T15:08:35.030Z,9.10
2019-02-06T15:11:39.726Z,9.10
2019-02-06T15:14:28.150Z,9.10
2019-02-06T15:17:21.440Z,9.20
2019-02-06T15:19:57.849Z,9.10
2019-02-06T15:22:57.701Z,9.10
2019-02-06T15:25:52.614Z,9.10
2019-02-06T15:28:27.587Z,9.10
2019-02-06T15:31:12.763Z,9.00
2019-02-06T15:33:42.020Z,9.00
2019-02-06T15:36:13.558Z,8.90
2019-02-06T15:39:04.129Z,8.90
2019-02-06T15:41:32.485Z,8.90
2019-02-06T15:44:07.592Z,8.90
2019-02-06T15:46:29.612Z,8.80
2019-02-06T15:49:12.638Z,8.80
2019-02-06T15:51:59.426Z,8.80
2019-02-06T15:54:29.591Z,8.70
2019-02-06T15:57:17.095Z,8.70
2019-02-06T16:00:01.869Z,8.70
2019-02-06T16:02:32.454Z,8.60
2019-02-06T16:05:25.162Z,8.60
2019-02-06T16:07:54.025Z,8.60
2019-02-06T16:10:41.415Z,8.50
2019-02-06T16:13:49.008Z,8.50
2019-02-06T16:16:27.901Z,8.50
2019-02-06T16:18:53.978Z,8.50
2019-02-06T16:21:35.817Z,8.50
2019-02-06T16:24:20.147Z,8.50
2019-02-06T16:27:20.651Z,8.40
2019-02-06T16:30:18.324Z,8.40
2019-02-06T16:32:53.953Z,8.30
2019-02-06T16:35:38.008Z,8.30
2019-02-06T16:38:19.303Z,8.30
2019-02-06T16:41:19.703Z,8.30
2019-02-06T16:43:38.920Z,8.30
2019-02-06T16:46:29.339Z,8.20
2019-02-06T16:49:00.811Z,8.20
2019-02-06T16:51:43.185Z,8.20
2019-02-06T16:54:24.497Z,8.20
2019-02-06T16:57:10.429Z,8.20
2019-02-06T16:59:45.961Z,8.20
2019-02-06T17:02:20.715Z,8.20
2019-02-06T17:05:00.215Z,8.20
2019-02-06T17:07:27.697Z,8.20
2019-02-06T17:10:06.121Z,8.20
2019-02-06T17:12:22.840Z,8.20
2019-02-06T17:15:06.584Z,8.10
2019-02-06T17:17:21.231Z,8.10
2019-02-06T17:19:50.616Z,8.10
2019-02-06T17:22:25.117Z,8.10
2019-02-06T17:25:02.183Z,8.00
2019-02-06T17:27:30.728Z,8.00
2019-02-06T17:30:22.428Z,8.00
2019-02-06T17:33:03.972Z,8.00
2019-02-06T17:35:43.833Z,8.00
2019-02-06T17:38:56.998Z,8.00
2019-02-06T17:41:48.572Z,8.00
2019-02-06T17:44:26.797Z,8.00
2019-02-06T17:47:04.595Z,8.00
2019-02-06T17:49:39.544Z,7.90
2019-02-06T18:11:54.905Z,8.00
2019-02-06T18:14:00.058Z,8.00
2019-02-06T18:16:05.327Z,8.00
2019-02-06T18:18:10.519Z,8.00
2019-02-06T18:20:17.949Z,8.00
2019-02-06T18:22:22.985Z,8.00
2019-02-06T18:24:36.918Z,7.90
2019-02-06T18:26:52.653Z,7.90
2019-02-06T18:28:58.265Z,7.90
2019-02-06T18:31:03.563Z,7.90
2019-02-06T18:33:08.907Z,7.90
2019-02-06T18:35:14.109Z,7.90
2019-02-06T18:37:19.336Z,7.90
2019-02-06T18:39:25.529Z,7.90
2019-02-06T18:41:31.129Z,7.90
2019-02-06T18:43:36.587Z,7.90
2019-02-06T18:45:41.292Z,7.90
2019-02-06T18:47:46.937Z,7.90
2019-02-06T18:49:52.398Z,7.80
2019-02-06T18:51:57.636Z,7.90
2019-02-06T18:54:02.854Z,7.90
2019-02-06T18:56:07.974Z,7.90
2019-02-06T18:58:13.003Z,7.90
2019-02-06T19:00:21.802Z,7.90
2019-02-06T19:06:04.030Z,7.90
2019-02-06T19:08:12.463Z,7.80
2019-02-06T19:10:19.433Z,7.80
2019-02-06T19:12:24.722Z,7.80
2019-02-06T19:14:29.577Z,7.80
2019-02-06T19:16:34.937Z,7.80
2019-02-06T19:18:39.733Z,7.80
2019-02-06T19:20:44.833Z,7.80
2019-02-06T19:22:50.236Z,7.80
2019-02-06T19:24:55.089Z,7.80
2019-02-06T19:27:10.357Z,7.80
2019-02-06T19:29:41.577Z,7.70
2019-02-06T19:31:53.758Z,7.70
2019-02-06T19:34:06.718Z,7.70
2019-02-06T19:36:12.626Z,7.70
2019-02-06T19:38:19.141Z,7.70
2019-02-06T19:40:24.739Z,7.60
2019-02-06T19:42:38.584Z,7.60
2019-02-06T19:46:23.498Z,7.60
2019-02-06T19:49:13.247Z,7.60
2019-02-06T19:51:06.418Z,7.60
2019-02-06T19:54:21.582Z,7.50
2019-02-06T19:57:13.228Z,7.50
2019-02-06T20:00:02.184Z,7.50
2019-02-06T20:05:44.481Z,7.50
2019-02-06T20:07:52.283Z,7.50
2019-02-06T20:09:58.670Z,7.50
2019-02-06T20:12:05.136Z,7.40
2019-02-06T20:14:10.460Z,7.50
2019-02-06T20:16:41.778Z,7.50
2019-02-06T20:18:58.403Z,7.40
2019-02-06T20:21:12.671Z,7.40
2019-02-06T20:23:17.627Z,7.40
2019-02-06T20:25:48.152Z,7.40
2019-02-06T20:28:17.492Z,7.30
2019-02-06T20:30:24.490Z,7.30
2019-02-06T20:32:29.750Z,7.30
2019-02-06T20:34:37.425Z,7.30
2019-02-06T20:36:42.717Z,7.30
2019-02-06T20:38:47.685Z,7.30
2019-02-06T20:40:52.683Z,7.20
2019-02-06T20:42:57.545Z,7.20
2019-02-06T20:45:02.422Z,7.20
2019-02-06T20:47:07.431Z,7.20
2019-02-06T20:49:12.480Z,7.10
2019-02-06T20:51:17.283Z,7.10
2019-02-06T20:53:22.083Z,7.10
2019-02-06T20:55:27.556Z,7.10
2019-02-06T20:57:32.498Z,7.10
2019-02-06T20:59:43.360Z,7.10
2019-02-06T21:01:48.343Z,7.10
2019-02-06T21:03:53.141Z,7.10
2019-02-06T21:05:58.317Z,7.10
2019-02-06T21:08:12.170Z,7.10
2019-02-06T21:10:29.546Z,7.00
2019-02-06T21:12:25.807Z,7.00
2019-02-06T21:14:38.481Z,7.00
2019-02-06T21:16:43.263Z,6.90
2019-02-06T21:18:48.333Z,6.90
2019-02-06T21:20:53.205Z,6.90
2019-02-06T21:22:57.977Z,6.90
2019-02-06T21:25:02.802Z,6.90
2019-02-06T21:27:07.640Z,6.90
2019-02-06T21:29:12.408Z,6.80
2019-02-06T21:31:17.349Z,6.80
2019-02-06T21:33:29.188Z,6.80
2019-02-06T21:35:52.818Z,6.80
2019-02-06T21:37:58.934Z,6.80
2019-02-06T21:40:59.637Z,6.80
2019-02-06T21:43:05.200Z,6.80
2019-02-06T21:45:24.371Z,6.70
2019-02-06T21:47:29.670Z,6.70
2019-02-06T21:49:45.939Z,6.70
2019-02-06T21:52:00.673Z,6.70
2019-02-06T21:54:05.798Z,6.70
2019-02-06T21:56:11.024Z,6.70
2019-02-06T21:58:17.041Z,6.70
2019-02-06T22:00:30.384Z,6.70
2019-02-06T22:02:42.494Z,6.70
2019-02-06T22:04:47.808Z,6.70
2019-02-06T22:06:52.698Z,6.70
2019-02-06T22:08:57.947Z,6.70
2019-02-06T22:11:02.830Z,6.80
2019-02-06T22:13:07.991Z,6.70
2019-02-06T22:15:18.645Z,6.70
2019-02-06T22:17:23.950Z,6.70
2019-02-06T22:19:28.882Z,6.70
2019-02-06T22:21:39.915Z,6.70
2019-02-06T22:23:45.001Z,6.70
2019-02-06T22:25:50.095Z,6.70
2019-02-06T22:27:55.078Z,6.60
2019-02-06T22:30:00.054Z,6.60
2019-02-06T22:32:05.513Z,6.60
2019-02-06T22:34:10.569Z,6.60
2019-02-06T22:36:15.825Z,6.60
2019-02-06T22:38:20.963Z,6.60
2019-02-06T22:40:36.987Z,6.60
2019-02-06T22:42:43.272Z,6.60
2019-02-06T22:44:49.521Z,6.60
2019-02-06T22:47:06.728Z,6.60
2019-02-06T22:49:18.410Z,6.70
2019-02-06T22:51:29.421Z,6.60
2019-02-06T22:53:34.865Z,6.60
2019-02-06T22:55:42.638Z,6.60
2019-02-06T22:57:48.067Z,6.60
2019-02-06T22:59:55.892Z,6.60
2019-02-06T23:02:15.473Z,6.60
2019-02-06T23:04:20.922Z,6.60
2019-02-06T23:06:26.565Z,6.60
2019-02-06T23:08:31.450Z,6.60
2019-02-06T23:10:37.496Z,6.60
2019-02-06T23:12:42.504Z,6.60
2019-02-06T23:14:47.720Z,6.60
2019-02-06T23:16:53.659Z,6.60
2019-02-06T23:19:00.477Z,6.50
2019-02-06T23:21:05.765Z,6.50
2019-02-06T23:23:11.333Z,6.50
2019-02-06T23:25:16.310Z,6.50
2019-02-06T23:27:21.202Z,6.50
2019-02-06T23:29:26.254Z,6.50
2019-02-06T23:31:31.175Z,6.50
2019-02-06T23:33:37.796Z,6.50
2019-02-06T23:35:47.109Z,6.50
2019-02-06T23:37:53.570Z,6.50
2019-02-06T23:39:58.536Z,6.50
2019-02-06T23:42:14.882Z,6.50
2019-02-06T23:44:28.596Z,6.50
2019-02-06T23:46:26.754Z,6.50
2019-02-06T23:48:49.899Z,6.50
2019-02-06T23:50:45.353Z,6.40
2019-02-06T23:52:59.212Z,6.50
2019-02-06T23:55:07.656Z,6.40
2019-02-06T23:57:29.514Z,6.40
2019-02-06T23:59:38.277Z,6.40
